sensor_id;sensor_type;location;lat;lon;timestamp;P1;durP1;ratioP1;P2;durP2;ratioP2
45402;SDS011;47427;51.976;5.326;2023-04-12T00:02:26;18.73;;;16.80;;
45402;SDS011;47427;51.976;5.326;2023-04-12T00:05:49;16.98;;;15.32;;
45402;SDS011;47427;51.976;5.326;2023-04-12T00:09:15;18.67;;;17.00;;
45402;SDS011;47427;51.976;5.326;2023-04-12T00:12:38;18.30;;;16.80;;
45402;SDS011;47427;51.976;5.326;2023-04-12T00:16:01;15.57;;;14.35;;
45402;SDS011;47427;51.976;5.326;2023-04-12T00:19:24;14.98;;;13.63;;
45402;SDS011;47427;51.976;5.326;2023-04-12T00:22:47;16.20;;;14.88;;
45402;SDS011;47427;51.976;5.326;2023-04-12T00:26:10;12.43;;;11.50;;
45402;SDS011;47427;51.976;5.326;2023-04-12T00:29:34;12.07;;;10.68;;
45402;SDS011;47427;51.976;5.326;2023-04-12T00:32:55;12.73;;;11.80;;
45402;SDS011;47427;51.976;5.326;2023-04-12T00:36:20;15.38;;;14.00;;
45402;SDS011;47427;51.976;5.326;2023-04-12T00:39:42;14.68;;;13.57;;
45402;SDS011;47427;51.976;5.326;2023-04-12T00:43:05;12.98;;;11.82;;
45402;SDS011;47427;51.976;5.326;2023-04-12T00:46:28;14.45;;;12.20;;
45402;SDS011;47427;51.976;5.326;2023-04-12T00:49:49;13.88;;;12.00;;
45402;SDS011;47427;51.976;5.326;2023-04-12T00:53:31;14.85;;;12.93;;
45402;SDS011;47427;51.976;5.326;2023-04-12T00:56:55;20.23;;;13.93;;
45402;SDS011;47427;51.976;5.326;2023-04-12T01:03:44;14.93;;;13.43;;
45402;SDS011;47427;51.976;5.326;2023-04-12T01:10:57;15.15;;;13.63;;
45402;SDS011;47427;51.976;5.326;2023-04-12T01:18:21;17.48;;;14.80;;
45402;SDS011;47427;51.976;5.326;2023-04-12T01:21:55;15.00;;;13.00;;
45402;SDS011;47427;51.976;5.326;2023-04-12T01:29:08;13.30;;;12.15;;
45402;SDS011;47427;51.976;5.326;2023-04-12T01:32:34;13.68;;;11.60;;
45402;SDS011;47427;51.976;5.326;2023-04-12T01:35:59;12.20;;;11.00;;
45402;SDS011;47427;51.976;5.326;2023-04-12T01:39:26;13.00;;;11.55;;
45402;SDS011;47427;51.976;5.326;2023-04-12T01:42:49;13.15;;;12.27;;
45402;SDS011;47427;51.976;5.326;2023-04-12T01:46:12;15.77;;;14.25;;
45402;SDS011;47427;51.976;5.326;2023-04-12T01:57:31;14.07;;;12.88;;
45402;SDS011;47427;51.976;5.326;2023-04-12T02:00:56;13.15;;;12.15;;
45402;SDS011;47427;51.976;5.326;2023-04-12T02:04:20;15.10;;;13.90;;
45402;SDS011;47427;51.976;5.326;2023-04-12T02:07:45;11.63;;;10.63;;
45402;SDS011;47427;51.976;5.326;2023-04-12T02:11:30;14.52;;;11.93;;
45402;SDS011;47427;51.976;5.326;2023-04-12T02:14:51;12.80;;;11.32;;
45402;SDS011;47427;51.976;5.326;2023-04-12T02:18:14;12.80;;;11.10;;
45402;SDS011;47427;51.976;5.326;2023-04-12T02:21:39;17.92;;;16.38;;
45402;SDS011;47427;51.976;5.326;2023-04-12T02:25:02;15.25;;;14.15;;
45402;SDS011;47427;51.976;5.326;2023-04-12T02:28:28;15.38;;;14.07;;
45402;SDS011;47427;51.976;5.326;2023-04-12T02:31:51;18.33;;;16.73;;
45402;SDS011;47427;51.976;5.326;2023-04-12T02:35:16;19.73;;;14.25;;
45402;SDS011;47427;51.976;5.326;2023-04-12T02:38:43;17.55;;;15.93;;
45402;SDS011;47427;51.976;5.326;2023-04-12T02:42:05;19.85;;;18.05;;
45402;SDS011;47427;51.976;5.326;2023-04-12T02:45:28;17.40;;;15.73;;
45402;SDS011;47427;51.976;5.326;2023-04-12T02:48:51;17.42;;;16.27;;
45402;SDS011;47427;51.976;5.326;2023-04-12T02:52:15;29.60;;;25.20;;
45402;SDS011;47427;51.976;5.326;2023-04-12T02:55:53;28.08;;;26.08;;
45402;SDS011;47427;51.976;5.326;2023-04-12T02:59:20;21.30;;;19.73;;
45402;SDS011;47427;51.976;5.326;2023-04-12T03:02:59;21.63;;;19.65;;
45402;SDS011;47427;51.976;5.326;2023-04-12T03:06:24;21.43;;;19.90;;
45402;SDS011;47427;51.976;5.326;2023-04-12T03:09:46;23.05;;;20.95;;
45402;SDS011;47427;51.976;5.326;2023-04-12T03:13:10;22.42;;;20.17;;
45402;SDS011;47427;51.976;5.326;2023-04-12T03:16:37;19.38;;;18.17;;
45402;SDS011;47427;51.976;5.326;2023-04-12T03:20:19;20.20;;;18.10;;
45402;SDS011;47427;51.976;5.326;2023-04-12T03:23:50;18.30;;;17.00;;
45402;SDS011;47427;51.976;5.326;2023-04-12T03:27:13;19.58;;;17.90;;
45402;SDS011;47427;51.976;5.326;2023-04-12T03:30:35;21.05;;;19.40;;
45402;SDS011;47427;51.976;5.326;2023-04-12T03:33:57;18.75;;;17.13;;
45402;SDS011;47427;51.976;5.326;2023-04-12T03:37:21;21.88;;;19.92;;
45402;SDS011;47427;51.976;5.326;2023-04-12T03:40:43;23.58;;;21.08;;
45402;SDS011;47427;51.976;5.326;2023-04-12T03:44:05;22.73;;;21.13;;
45402;SDS011;47427;51.976;5.326;2023-04-12T03:47:29;20.75;;;18.80;;
45402;SDS011;47427;51.976;5.326;2023-04-12T03:50:52;19.08;;;17.35;;
45402;SDS011;47427;51.976;5.326;2023-04-12T03:54:17;18.70;;;16.52;;
45402;SDS011;47427;51.976;5.326;2023-04-12T03:57:53;19.13;;;17.17;;
45402;SDS011;47427;51.976;5.326;2023-04-12T04:01:19;19.63;;;17.52;;
45402;SDS011;47427;51.976;5.326;2023-04-12T04:04:41;18.35;;;16.88;;
45402;SDS011;47427;51.976;5.326;2023-04-12T04:08:07;20.58;;;18.67;;
45402;SDS011;47427;51.976;5.326;2023-04-12T04:11:50;19.88;;;18.20;;
45402;SDS011;47427;51.976;5.326;2023-04-12T04:15:14;19.58;;;17.73;;
45402;SDS011;47427;51.976;5.326;2023-04-12T04:18:36;19.70;;;18.38;;
45402;SDS011;47427;51.976;5.326;2023-04-12T04:22:00;19.35;;;17.77;;
45402;SDS011;47427;51.976;5.326;2023-04-12T04:25:25;19.48;;;17.58;;
45402;SDS011;47427;51.976;5.326;2023-04-12T04:28:50;19.17;;;17.77;;
45402;SDS011;47427;51.976;5.326;2023-04-12T04:32:16;19.83;;;18.05;;
45402;SDS011;47427;51.976;5.326;2023-04-12T04:35:39;20.92;;;19.52;;
45402;SDS011;47427;51.976;5.326;2023-04-12T04:39:16;20.13;;;18.65;;
45402;SDS011;47427;51.976;5.326;2023-04-12T04:42:39;20.00;;;18.23;;
45402;SDS011;47427;51.976;5.326;2023-04-12T04:46:03;21.75;;;20.27;;
45402;SDS011;47427;51.976;5.326;2023-04-12T04:49:25;22.40;;;20.92;;
45402;SDS011;47427;51.976;5.326;2023-04-12T04:52:55;20.25;;;18.85;;
45402;SDS011;47427;51.976;5.326;2023-04-12T04:56:17;23.08;;;21.02;;
45402;SDS011;47427;51.976;5.326;2023-04-12T04:59:44;20.10;;;18.70;;
45402;SDS011;47427;51.976;5.326;2023-04-12T05:03:11;23.33;;;21.27;;
45402;SDS011;47427;51.976;5.326;2023-04-12T05:06:32;23.67;;;21.95;;
45402;SDS011;47427;51.976;5.326;2023-04-12T05:09:55;24.80;;;22.88;;
45402;SDS011;47427;51.976;5.326;2023-04-12T05:13:17;23.85;;;21.88;;
45402;SDS011;47427;51.976;5.326;2023-04-12T05:16:39;22.80;;;21.05;;
45402;SDS011;47427;51.976;5.326;2023-04-12T05:20:02;24.27;;;22.10;;
45402;SDS011;47427;51.976;5.326;2023-04-12T05:23:48;21.45;;;19.95;;
45402;SDS011;47427;51.976;5.326;2023-04-12T05:27:11;22.60;;;20.88;;
45402;SDS011;47427;51.976;5.326;2023-04-12T05:30:35;25.00;;;22.80;;
45402;SDS011;47427;51.976;5.326;2023-04-12T05:33:59;22.65;;;21.02;;
45402;SDS011;47427;51.976;5.326;2023-04-12T05:37:27;23.60;;;21.48;;
45402;SDS011;47427;51.976;5.326;2023-04-12T05:40:49;27.05;;;22.50;;
45402;SDS011;47427;51.976;5.326;2023-04-12T05:44:16;22.08;;;20.58;;
45402;SDS011;47427;51.976;5.326;2023-04-12T05:47:39;24.60;;;22.98;;
45402;SDS011;47427;51.976;5.326;2023-04-12T05:51:01;23.05;;;21.35;;
45402;SDS011;47427;51.976;5.326;2023-04-12T05:54:26;23.10;;;21.60;;
45402;SDS011;47427;51.976;5.326;2023-04-12T05:57:49;34.55;;;23.88;;
45402;SDS011;47427;51.976;5.326;2023-04-12T06:01:13;22.80;;;21.20;;
45402;SDS011;47427;51.976;5.326;2023-04-12T06:04:40;23.05;;;21.48;;
45402;SDS011;47427;51.976;5.326;2023-04-12T06:08:06;22.67;;;20.98;;
45402;SDS011;47427;51.976;5.326;2023-04-12T06:11:28;20.80;;;19.33;;
45402;SDS011;47427;51.976;5.326;2023-04-12T06:14:51;19.63;;;18.33;;
45402;SDS011;47427;51.976;5.326;2023-04-12T06:18:12;20.73;;;19.42;;
45402;SDS011;47427;51.976;5.326;2023-04-12T06:21:36;21.60;;;20.17;;
45402;SDS011;47427;51.976;5.326;2023-04-12T06:24:59;23.85;;;22.00;;
45402;SDS011;47427;51.976;5.326;2023-04-12T06:28:20;23.42;;;21.92;;
45402;SDS011;47427;51.976;5.326;2023-04-12T06:31:46;22.65;;;20.98;;
45402;SDS011;47427;51.976;5.326;2023-04-12T06:35:09;23.48;;;21.83;;
45402;SDS011;47427;51.976;5.326;2023-04-12T06:38:30;20.83;;;19.63;;
45402;SDS011;47427;51.976;5.326;2023-04-12T06:41:52;22.30;;;20.70;;
45402;SDS011;47427;51.976;5.326;2023-04-12T06:45:15;21.67;;;20.17;;
45402;SDS011;47427;51.976;5.326;2023-04-12T06:48:38;22.58;;;20.67;;
45402;SDS011;47427;51.976;5.326;2023-04-12T06:52:00;22.08;;;20.35;;
45402;SDS011;47427;51.976;5.326;2023-04-12T06:55:22;22.33;;;20.42;;
45402;SDS011;47427;51.976;5.326;2023-04-12T06:59:03;21.92;;;20.25;;
45402;SDS011;47427;51.976;5.326;2023-04-12T07:02:47;21.55;;;19.98;;
45402;SDS011;47427;51.976;5.326;2023-04-12T07:06:09;23.05;;;20.67;;
45402;SDS011;47427;51.976;5.326;2023-04-12T07:09:32;21.38;;;19.88;;
45402;SDS011;47427;51.976;5.326;2023-04-12T07:12:53;22.30;;;20.60;;
45402;SDS011;47427;51.976;5.326;2023-04-12T07:16:17;23.38;;;20.75;;
45402;SDS011;47427;51.976;5.326;2023-04-12T07:19:39;26.17;;;23.85;;
45402;SDS011;47427;51.976;5.326;2023-04-12T07:23:02;22.63;;;20.67;;
45402;SDS011;47427;51.976;5.326;2023-04-12T07:26:25;24.88;;;21.75;;
45402;SDS011;47427;51.976;5.326;2023-04-12T07:29:47;23.08;;;21.38;;
45402;SDS011;47427;51.976;5.326;2023-04-12T07:33:11;21.90;;;20.17;;
45402;SDS011;47427;51.976;5.326;2023-04-12T07:36:34;23.40;;;21.25;;
45402;SDS011;47427;51.976;5.326;2023-04-12T07:39:56;24.73;;;22.20;;
45402;SDS011;47427;51.976;5.326;2023-04-12T07:43:18;23.85;;;21.83;;
45402;SDS011;47427;51.976;5.326;2023-04-12T07:46:40;27.33;;;24.45;;
45402;SDS011;47427;51.976;5.326;2023-04-12T07:50:02;24.08;;;22.02;;
45402;SDS011;47427;51.976;5.326;2023-04-12T07:53:27;24.67;;;22.33;;
45402;SDS011;47427;51.976;5.326;2023-04-12T07:56:58;27.15;;;21.73;;
45402;SDS011;47427;51.976;5.326;2023-04-12T08:00:23;23.15;;;21.05;;
45402;SDS011;47427;51.976;5.326;2023-04-12T08:03:46;26.90;;;20.75;;
45402;SDS011;47427;51.976;5.326;2023-04-12T08:07:07;25.77;;;20.90;;
45402;SDS011;47427;51.976;5.326;2023-04-12T08:10:30;28.98;;;20.77;;
45402;SDS011;47427;51.976;5.326;2023-04-12T08:13:52;27.42;;;20.77;;
45402;SDS011;47427;51.976;5.326;2023-04-12T08:17:14;25.25;;;20.95;;
45402;SDS011;47427;51.976;5.326;2023-04-12T08:20:37;40.42;;;25.23;;
45402;SDS011;47427;51.976;5.326;2023-04-12T08:27:28;37.42;;;24.02;;
45402;SDS011;47427;51.976;5.326;2023-04-12T08:30:51;33.83;;;22.75;;
45402;SDS011;47427;51.976;5.326;2023-04-12T08:34:12;32.03;;;23.55;;
45402;SDS011;47427;51.976;5.326;2023-04-12T08:37:35;34.05;;;24.35;;
45402;SDS011;47427;51.976;5.326;2023-04-12T08:40:58;32.55;;;23.63;;
45402;SDS011;47427;51.976;5.326;2023-04-12T08:44:27;43.15;;;24.52;;
45402;SDS011;47427;51.976;5.326;2023-04-12T08:47:59;33.35;;;24.55;;
45402;SDS011;47427;51.976;5.326;2023-04-12T08:51:24;34.85;;;24.10;;
45402;SDS011;47427;51.976;5.326;2023-04-12T08:54:47;31.17;;;22.80;;
45402;SDS011;47427;51.976;5.326;2023-04-12T08:58:12;33.97;;;24.40;;
45402;SDS011;47427;51.976;5.326;2023-04-12T09:01:34;30.63;;;23.10;;
45402;SDS011;47427;51.976;5.326;2023-04-12T09:04:57;33.92;;;24.25;;
45402;SDS011;47427;51.976;5.326;2023-04-12T09:08:19;30.35;;;23.25;;
45402;SDS011;47427;51.976;5.326;2023-04-12T09:11:42;33.35;;;22.80;;
45402;SDS011;47427;51.976;5.326;2023-04-12T09:15:11;28.95;;;22.00;;
45402;SDS011;47427;51.976;5.326;2023-04-12T09:18:46;27.88;;;21.25;;
45402;SDS011;47427;51.976;5.326;2023-04-12T09:22:11;35.60;;;24.38;;
45402;SDS011;47427;51.976;5.326;2023-04-12T09:25:35;34.92;;;22.30;;
45402;SDS011;47427;51.976;5.326;2023-04-12T09:29:05;31.70;;;23.30;;
45402;SDS011;47427;51.976;5.326;2023-04-12T09:32:46;31.10;;;21.92;;
45402;SDS011;47427;51.976;5.326;2023-04-12T09:36:13;32.92;;;22.80;;
45402;SDS011;47427;51.976;5.326;2023-04-12T09:39:37;32.40;;;23.27;;
45402;SDS011;47427;51.976;5.326;2023-04-12T09:43:00;32.13;;;22.58;;
45402;SDS011;47427;51.976;5.326;2023-04-12T09:46:23;32.55;;;22.95;;
45402;SDS011;47427;51.976;5.326;2023-04-12T09:49:46;32.00;;;23.17;;
45402;SDS011;47427;51.976;5.326;2023-04-12T09:53:14;31.40;;;22.48;;
45402;SDS011;47427;51.976;5.326;2023-04-12T09:56:38;45.28;;;22.80;;
45402;SDS011;47427;51.976;5.326;2023-04-12T10:00:03;33.72;;;25.10;;
45402;SDS011;47427;51.976;5.326;2023-04-12T10:03:32;31.25;;;23.20;;
45402;SDS011;47427;51.976;5.326;2023-04-12T10:06:54;36.15;;;23.75;;
45402;SDS011;47427;51.976;5.326;2023-04-12T10:10:20;28.48;;;23.95;;
45402;SDS011;47427;51.976;5.326;2023-04-12T10:13:42;34.88;;;24.40;;
45402;SDS011;47427;51.976;5.326;2023-04-12T10:17:06;30.58;;;23.55;;
45402;SDS011;47427;51.976;5.326;2023-04-12T10:20:32;36.15;;;25.25;;
45402;SDS011;47427;51.976;5.326;2023-04-12T10:23:57;28.00;;;25.13;;
45402;SDS011;47427;51.976;5.326;2023-04-12T10:27:24;26.58;;;23.73;;
45402;SDS011;47427;51.976;5.326;2023-04-12T10:30:47;27.98;;;23.30;;
45402;SDS011;47427;51.976;5.326;2023-04-12T10:34:12;27.60;;;24.77;;
45402;SDS011;47427;51.976;5.326;2023-04-12T10:41:21;30.13;;;23.42;;
45402;SDS011;47427;51.976;5.326;2023-04-12T10:44:43;36.03;;;25.75;;
45402;SDS011;47427;51.976;5.326;2023-04-12T10:48:07;34.30;;;24.75;;
45402;SDS011;47427;51.976;5.326;2023-04-12T10:55:29;28.15;;;24.00;;
45402;SDS011;47427;51.976;5.326;2023-04-12T10:58:53;27.85;;;22.52;;
45402;SDS011;47427;51.976;5.326;2023-04-12T11:02:17;37.00;;;23.60;;
45402;SDS011;47427;51.976;5.326;2023-04-12T11:05:58;38.45;;;25.00;;
45402;SDS011;47427;51.976;5.326;2023-04-12T11:09:41;26.45;;;23.00;;
45402;SDS011;47427;51.976;5.326;2023-04-12T11:13:05;31.50;;;24.52;;
45402;SDS011;47427;51.976;5.326;2023-04-12T11:16:28;25.23;;;22.60;;
45402;SDS011;47427;51.976;5.326;2023-04-12T11:19:52;30.30;;;23.27;;
45402;SDS011;47427;51.976;5.326;2023-04-12T11:23:17;24.98;;;22.48;;
45402;SDS011;47427;51.976;5.326;2023-04-12T11:26:39;25.60;;;22.08;;
45402;SDS011;47427;51.976;5.326;2023-04-12T11:30:03;26.48;;;23.38;;
45402;SDS011;47427;51.976;5.326;2023-04-12T11:33:36;24.48;;;21.65;;
45402;SDS011;47427;51.976;5.326;2023-04-12T11:36:59;25.98;;;21.15;;
45402;SDS011;47427;51.976;5.326;2023-04-12T11:40:26;22.83;;;20.42;;
45402;SDS011;47427;51.976;5.326;2023-04-12T11:43:57;23.67;;;20.67;;
45402;SDS011;47427;51.976;5.326;2023-04-12T11:47:41;23.38;;;20.95;;
45402;SDS011;47427;51.976;5.326;2023-04-12T11:51:17;25.85;;;22.02;;
45402;SDS011;47427;51.976;5.326;2023-04-12T11:54:42;22.55;;;20.50;;
45402;SDS011;47427;51.976;5.326;2023-04-12T11:58:11;20.70;;;18.90;;
45402;SDS011;47427;51.976;5.326;2023-04-12T12:01:36;20.60;;;18.58;;
45402;SDS011;47427;51.976;5.326;2023-04-12T12:04:59;20.05;;;18.17;;
45402;SDS011;47427;51.976;5.326;2023-04-12T12:08:22;20.02;;;18.20;;
45402;SDS011;47427;51.976;5.326;2023-04-12T12:11:44;22.90;;;20.85;;
45402;SDS011;47427;51.976;5.326;2023-04-12T12:15:07;25.70;;;21.20;;
45402;SDS011;47427;51.976;5.326;2023-04-12T12:18:30;20.90;;;18.58;;
45402;SDS011;47427;51.976;5.326;2023-04-12T12:21:52;21.00;;;18.83;;
45402;SDS011;47427;51.976;5.326;2023-04-12T12:25:13;24.85;;;19.00;;
45402;SDS011;47427;51.976;5.326;2023-04-12T12:28:37;21.73;;;19.08;;
45402;SDS011;47427;51.976;5.326;2023-04-12T12:31:59;25.33;;;18.67;;
45402;SDS011;47427;51.976;5.326;2023-04-12T12:35:27;19.48;;;17.50;;
45402;SDS011;47427;51.976;5.326;2023-04-12T12:38:54;19.65;;;17.90;;
45402;SDS011;47427;51.976;5.326;2023-04-12T12:42:15;19.33;;;17.40;;
45402;SDS011;47427;51.976;5.326;2023-04-12T12:45:38;18.70;;;16.98;;
45402;SDS011;47427;51.976;5.326;2023-04-12T12:49:00;20.65;;;18.50;;
45402;SDS011;47427;51.976;5.326;2023-04-12T12:52:21;22.33;;;18.88;;
45402;SDS011;47427;51.976;5.326;2023-04-12T12:55:44;22.05;;;18.75;;
45402;SDS011;47427;51.976;5.326;2023-04-12T12:59:06;18.30;;;16.83;;
45402;SDS011;47427;51.976;5.326;2023-04-12T13:02:28;18.55;;;17.27;;
45402;SDS011;47427;51.976;5.326;2023-04-12T13:05:51;19.70;;;17.92;;
45402;SDS011;47427;51.976;5.326;2023-04-12T13:09:13;20.58;;;18.77;;
45402;SDS011;47427;51.976;5.326;2023-04-12T13:12:35;18.98;;;17.42;;
45402;SDS011;47427;51.976;5.326;2023-04-12T13:15:57;19.70;;;17.90;;
45402;SDS011;47427;51.976;5.326;2023-04-12T13:19:20;19.67;;;17.92;;
45402;SDS011;47427;51.976;5.326;2023-04-12T13:22:42;19.30;;;17.33;;
45402;SDS011;47427;51.976;5.326;2023-04-12T13:26:04;21.05;;;18.85;;
45402;SDS011;47427;51.976;5.326;2023-04-12T13:29:27;19.80;;;17.63;;
45402;SDS011;47427;51.976;5.326;2023-04-12T13:32:51;20.55;;;18.83;;
45402;SDS011;47427;51.976;5.326;2023-04-12T13:36:33;20.75;;;19.05;;
45402;SDS011;47427;51.976;5.326;2023-04-12T13:39:57;18.65;;;17.13;;
45402;SDS011;47427;51.976;5.326;2023-04-12T13:43:19;18.67;;;17.00;;
45402;SDS011;47427;51.976;5.326;2023-04-12T13:46:41;18.08;;;16.73;;
45402;SDS011;47427;51.976;5.326;2023-04-12T13:50:04;18.92;;;17.25;;
45402;SDS011;47427;51.976;5.326;2023-04-12T13:53:26;18.98;;;17.67;;
45402;SDS011;47427;51.976;5.326;2023-04-12T13:56:49;19.60;;;18.40;;
45402;SDS011;47427;51.976;5.326;2023-04-12T14:00:11;20.25;;;18.55;;
45402;SDS011;47427;51.976;5.326;2023-04-12T14:03:36;19.25;;;17.63;;
45402;SDS011;47427;51.976;5.326;2023-04-12T14:06:59;19.10;;;17.70;;
45402;SDS011;47427;51.976;5.326;2023-04-12T14:10:20;16.83;;;15.60;;
45402;SDS011;47427;51.976;5.326;2023-04-12T14:13:43;18.20;;;17.00;;
45402;SDS011;47427;51.976;5.326;2023-04-12T14:17:06;18.27;;;16.98;;
45402;SDS011;47427;51.976;5.326;2023-04-12T14:20:27;18.63;;;17.35;;
45402;SDS011;47427;51.976;5.326;2023-04-12T14:23:50;18.30;;;17.08;;
45402;SDS011;47427;51.976;5.326;2023-04-12T14:27:13;18.33;;;17.08;;
45402;SDS011;47427;51.976;5.326;2023-04-12T14:30:35;17.88;;;16.67;;
45402;SDS011;47427;51.976;5.326;2023-04-12T14:33:57;18.13;;;16.90;;
45402;SDS011;47427;51.976;5.326;2023-04-12T14:37:19;18.33;;;16.90;;
45402;SDS011;47427;51.976;5.326;2023-04-12T14:40:41;18.60;;;17.35;;
45402;SDS011;47427;51.976;5.326;2023-04-12T14:44:04;17.58;;;16.67;;
45402;SDS011;47427;51.976;5.326;2023-04-12T14:47:25;19.70;;;18.40;;
45402;SDS011;47427;51.976;5.326;2023-04-12T14:50:48;20.20;;;18.80;;
45402;SDS011;47427;51.976;5.326;2023-04-12T14:54:11;19.58;;;18.17;;
45402;SDS011;47427;51.976;5.326;2023-04-12T14:57:33;19.10;;;18.05;;
45402;SDS011;47427;51.976;5.326;2023-04-12T15:00:58;18.17;;;17.10;;
45402;SDS011;47427;51.976;5.326;2023-04-12T15:04:20;18.25;;;17.15;;
45402;SDS011;47427;51.976;5.326;2023-04-12T15:07:43;17.42;;;16.30;;
45402;SDS011;47427;51.976;5.326;2023-04-12T15:11:06;16.38;;;15.27;;
45402;SDS011;47427;51.976;5.326;2023-04-12T15:17:54;18.02;;;16.88;;
45402;SDS011;47427;51.976;5.326;2023-04-12T15:21:16;16.63;;;15.50;;
45402;SDS011;47427;51.976;5.326;2023-04-12T15:24:38;18.83;;;17.60;;
45402;SDS011;47427;51.976;5.326;2023-04-12T15:28:01;16.50;;;15.30;;
45402;SDS011;47427;51.976;5.326;2023-04-12T15:31:23;17.05;;;15.70;;
45402;SDS011;47427;51.976;5.326;2023-04-12T15:34:46;16.85;;;15.85;;
45402;SDS011;47427;51.976;5.326;2023-04-12T15:38:09;18.58;;;17.58;;
45402;SDS011;47427;51.976;5.326;2023-04-12T15:41:35;17.33;;;16.33;;
45402;SDS011;47427;51.976;5.326;2023-04-12T15:45:00;18.13;;;16.75;;
45402;SDS011;47427;51.976;5.326;2023-04-12T15:48:22;17.55;;;16.35;;
45402;SDS011;47427;51.976;5.326;2023-04-12T15:51:46;16.60;;;15.40;;
45402;SDS011;47427;51.976;5.326;2023-04-12T15:55:09;17.52;;;16.33;;
45402;SDS011;47427;51.976;5.326;2023-04-12T15:58:31;17.33;;;16.00;;
45402;SDS011;47427;51.976;5.326;2023-04-12T16:01:54;16.63;;;15.52;;
45402;SDS011;47427;51.976;5.326;2023-04-12T16:05:19;16.35;;;15.18;;
45402;SDS011;47427;51.976;5.326;2023-04-12T16:08:41;16.63;;;15.57;;
45402;SDS011;47427;51.976;5.326;2023-04-12T16:12:04;17.08;;;15.88;;
45402;SDS011;47427;51.976;5.326;2023-04-12T16:15:26;16.58;;;15.68;;
45402;SDS011;47427;51.976;5.326;2023-04-12T16:18:49;18.88;;;17.77;;
45402;SDS011;47427;51.976;5.326;2023-04-12T16:22:13;17.95;;;16.88;;
45402;SDS011;47427;51.976;5.326;2023-04-12T16:25:34;18.50;;;17.25;;
45402;SDS011;47427;51.976;5.326;2023-04-12T16:28:57;18.90;;;17.20;;
45402;SDS011;47427;51.976;5.326;2023-04-12T16:32:22;17.42;;;16.42;;
45402;SDS011;47427;51.976;5.326;2023-04-12T16:35:43;16.48;;;15.45;;
45402;SDS011;47427;51.976;5.326;2023-04-12T16:39:06;18.40;;;17.17;;
45402;SDS011;47427;51.976;5.326;2023-04-12T16:42:27;18.42;;;17.05;;
45402;SDS011;47427;51.976;5.326;2023-04-12T16:45:52;17.50;;;16.30;;
45402;SDS011;47427;51.976;5.326;2023-04-12T16:49:34;17.60;;;16.40;;
45402;SDS011;47427;51.976;5.326;2023-04-12T16:52:57;17.70;;;16.42;;
45402;SDS011;47427;51.976;5.326;2023-04-12T16:56:20;18.83;;;17.67;;
45402;SDS011;47427;51.976;5.326;2023-04-12T16:59:43;20.05;;;18.55;;
45402;SDS011;47427;51.976;5.326;2023-04-12T17:03:06;20.10;;;18.50;;
45402;SDS011;47427;51.976;5.326;2023-04-12T17:06:28;19.65;;;18.23;;
45402;SDS011;47427;51.976;5.326;2023-04-12T17:09:53;18.90;;;17.60;;
45402;SDS011;47427;51.976;5.326;2023-04-12T17:13:16;18.23;;;17.10;;
45402;SDS011;47427;51.976;5.326;2023-04-12T17:16:39;19.42;;;18.23;;
45402;SDS011;47427;51.976;5.326;2023-04-12T17:20:01;20.38;;;19.02;;
45402;SDS011;47427;51.976;5.326;2023-04-12T17:23:24;18.92;;;17.73;;
45402;SDS011;47427;51.976;5.326;2023-04-12T17:26:47;20.02;;;18.33;;
45402;SDS011;47427;51.976;5.326;2023-04-12T17:30:10;20.17;;;18.58;;
45402;SDS011;47427;51.976;5.326;2023-04-12T17:33:34;20.05;;;18.75;;
45402;SDS011;47427;51.976;5.326;2023-04-12T17:36:57;20.42;;;19.02;;
45402;SDS011;47427;51.976;5.326;2023-04-12T17:40:19;19.33;;;18.17;;
45402;SDS011;47427;51.976;5.326;2023-04-12T17:43:43;18.17;;;17.00;;
45402;SDS011;47427;51.976;5.326;2023-04-12T17:47:06;21.08;;;19.65;;
45402;SDS011;47427;51.976;5.326;2023-04-12T17:50:29;19.50;;;18.20;;
45402;SDS011;47427;51.976;5.326;2023-04-12T17:53:51;19.98;;;18.77;;
45402;SDS011;47427;51.976;5.326;2023-04-12T17:57:16;21.48;;;19.90;;
45402;SDS011;47427;51.976;5.326;2023-04-12T18:00:38;21.75;;;19.95;;
45402;SDS011;47427;51.976;5.326;2023-04-12T18:04:00;21.98;;;20.48;;
45402;SDS011;47427;51.976;5.326;2023-04-12T18:07:23;21.55;;;20.15;;
45402;SDS011;47427;51.976;5.326;2023-04-12T18:10:46;21.55;;;19.95;;
45402;SDS011;47427;51.976;5.326;2023-04-12T18:14:08;22.05;;;20.52;;
45402;SDS011;47427;51.976;5.326;2023-04-12T18:17:31;22.88;;;21.20;;
45402;SDS011;47427;51.976;5.326;2023-04-12T18:20:54;22.25;;;20.67;;
45402;SDS011;47427;51.976;5.326;2023-04-12T18:24:17;23.48;;;21.63;;
45402;SDS011;47427;51.976;5.326;2023-04-12T18:27:40;22.45;;;20.80;;
45402;SDS011;47427;51.976;5.326;2023-04-12T18:31:01;23.58;;;21.67;;
45402;SDS011;47427;51.976;5.326;2023-04-12T18:34:24;23.55;;;21.75;;
45402;SDS011;47427;51.976;5.326;2023-04-12T18:37:48;23.63;;;21.60;;
45402;SDS011;47427;51.976;5.326;2023-04-12T18:41:13;22.77;;;20.70;;
45402;SDS011;47427;51.976;5.326;2023-04-12T18:44:36;23.10;;;21.20;;
45402;SDS011;47427;51.976;5.326;2023-04-12T18:47:59;23.55;;;21.60;;
45402;SDS011;47427;51.976;5.326;2023-04-12T18:51:20;20.67;;;19.08;;
45402;SDS011;47427;51.976;5.326;2023-04-12T18:54:44;20.90;;;19.50;;
45402;SDS011;47427;51.976;5.326;2023-04-12T18:58:05;21.80;;;19.80;;
45402;SDS011;47427;51.976;5.326;2023-04-12T19:01:29;21.35;;;19.65;;
45402;SDS011;47427;51.976;5.326;2023-04-12T19:04:51;20.52;;;18.80;;
45402;SDS011;47427;51.976;5.326;2023-04-12T19:08:13;20.70;;;19.00;;
45402;SDS011;47427;51.976;5.326;2023-04-12T19:11:36;21.65;;;20.00;;
45402;SDS011;47427;51.976;5.326;2023-04-12T19:14:58;22.40;;;20.63;;
45402;SDS011;47427;51.976;5.326;2023-04-12T19:18:20;25.42;;;22.85;;
45402;SDS011;47427;51.976;5.326;2023-04-12T19:21:44;22.52;;;20.45;;
45402;SDS011;47427;51.976;5.326;2023-04-12T19:25:07;23.45;;;21.35;;
45402;SDS011;47427;51.976;5.326;2023-04-12T19:28:30;20.95;;;19.25;;
45402;SDS011;47427;51.976;5.326;2023-04-12T19:31:53;20.75;;;18.77;;
45402;SDS011;47427;51.976;5.326;2023-04-12T19:35:15;20.42;;;18.85;;
45402;SDS011;47427;51.976;5.326;2023-04-12T19:38:37;20.80;;;19.00;;
45402;SDS011;47427;51.976;5.326;2023-04-12T19:42:05;21.13;;;18.90;;
45402;SDS011;47427;51.976;5.326;2023-04-12T19:45:26;20.65;;;18.90;;
45402;SDS011;47427;51.976;5.326;2023-04-12T19:48:49;19.77;;;18.33;;
45402;SDS011;47427;51.976;5.326;2023-04-12T19:52:13;21.10;;;19.35;;
45402;SDS011;47427;51.976;5.326;2023-04-12T19:55:39;21.27;;;19.33;;
45402;SDS011;47427;51.976;5.326;2023-04-12T19:59:03;20.40;;;18.58;;
45402;SDS011;47427;51.976;5.326;2023-04-12T20:02:30;29.90;;;20.67;;
45402;SDS011;47427;51.976;5.326;2023-04-12T20:05:52;19.95;;;18.45;;
45402;SDS011;47427;51.976;5.326;2023-04-12T20:09:15;21.30;;;19.50;;
45402;SDS011;47427;51.976;5.326;2023-04-12T20:12:37;20.77;;;19.38;;
45402;SDS011;47427;51.976;5.326;2023-04-12T20:16:03;21.95;;;19.80;;
45402;SDS011;47427;51.976;5.326;2023-04-12T20:19:25;21.08;;;19.30;;
45402;SDS011;47427;51.976;5.326;2023-04-12T20:22:48;21.27;;;19.42;;
45402;SDS011;47427;51.976;5.326;2023-04-12T20:26:12;22.45;;;18.83;;
45402;SDS011;47427;51.976;5.326;2023-04-12T20:29:35;20.65;;;19.05;;
45402;SDS011;47427;51.976;5.326;2023-04-12T20:32:58;20.15;;;18.25;;